Time;durP1;ratioP1;P1;durP2;ratioP2;P2;SDS_P1;SDS_P2;PMS_P1;PMS_P2;Temp;Humidity;BMP_temperature;BMP_pressure;BME280_temperature;BME280_humidity;BME280_pressure;Samples;Min_cycle;Max_cycle;Signal;HPM_P1;HPM_P2
2022/04/15 00:02:18;;;;;;;10.05;6.18;;;8.00;87.90;;;;;;5020126;28;20034;-71
2022/04/15 00:04:44;;;;;;;10.55;6.50;;;8.00;87.90;;;;;;5030546;28;20481;-71
2022/04/15 00:07:10;;;;;;;10.68;6.35;;;8.00;87.90;;;;;;5030551;28;20033;-71
2022/04/15 00:09:36;;;;;;;10.45;6.05;;;8.00;87.80;;;;;;5020380;28;20444;-71
2022/04/15 00:12:07;;;;;;;9.85;6.03;;;8.00;87.60;;;;;;5021137;28;20100;-72
2022/04/15 00:14:34;;;;;;;13.43;5.55;;;8.00;87.30;;;;;;5031101;28;20025;-72
2022/04/15 00:16:59;;;;;;;10.48;5.82;;;7.90;87.20;;;;;;5030388;28;20485;-71
2022/04/15 00:19:25;;;;;;;10.10;5.70;;;7.90;87.20;;;;;;5029075;28;20065;-71
2022/04/15 00:21:50;;;;;;;8.38;5.38;;;8.00;87.30;;;;;;5030527;28;20030;-71
2022/04/15 00:24:16;;;;;;;9.93;5.80;;;7.90;86.90;;;;;;5029999;28;20032;-72
2022/04/15 00:26:42;;;;;;;10.20;5.18;;;7.90;87.00;;;;;;5025639;28;20037;-72
2022/04/15 00:29:07;;;;;;;12.02;5.88;;;8.00;87.10;;;;;;5031560;28;20385;-74
2022/04/15 00:31:34;;;;;;;10.25;5.60;;;8.00;87.00;;;;;;5029149;28;20543;-72
2022/04/15 00:34:01;;;;;;;11.57;5.82;;;7.90;86.50;;;;;;5030583;28;20068;-72
2022/04/15 00:36:26;;;;;;;9.35;5.75;;;7.90;86.50;;;;;;5020353;28;20037;-73
2022/04/15 00:38:52;;;;;;;11.80;5.65;;;7.90;86.30;;;;;;5024792;28;20622;-72
2022/04/15 00:41:17;;;;;;;8.85;5.18;;;7.80;86.30;;;;;;5030671;28;20033;-71
2022/04/15 00:43:43;;;;;;;8.10;4.80;;;7.80;86.20;;;;;;5032828;28;20489;-71
2022/04/15 00:46:11;;;;;;;11.05;5.28;;;7.80;85.90;;;;;;5033066;28;20037;-71
2022/04/15 00:48:37;;;;;;;10.73;5.55;;;7.80;86.00;;;;;;5034114;28;20060;-71
2022/04/15 00:51:03;;;;;;;11.10;5.07;;;7.80;86.20;;;;;;5033584;28;20037;-71
2022/04/15 00:53:30;;;;;;;8.68;4.55;;;7.70;86.00;;;;;;5033866;28;20049;-71
2022/04/15 00:56:03;;;;;;;8.48;4.35;;;7.70;85.80;;;;;;5034338;28;20022;-71
2022/04/15 00:58:31;;;;;;;11.02;5.13;;;7.70;85.50;;;;;;5034641;28;20105;-71
2022/04/15 01:00:58;;;;;;;8.32;5.35;;;7.80;85.70;;;;;;5032655;28;20064;-73
2022/04/15 01:03:24;;;;;;;10.45;5.53;;;7.70;85.50;;;;;;5034097;28;20029;-73
2022/04/15 01:05:54;;;;;;;7.68;4.85;;;7.70;85.40;;;;;;5033932;28;20037;-71
2022/04/15 01:08:22;;;;;;;11.15;6.07;;;7.70;85.50;;;;;;5033305;28;20044;-71
2022/04/15 01:10:51;;;;;;;9.82;5.82;;;7.70;85.50;;;;;;5025680;28;20041;-73
2022/04/15 01:13:18;;;;;;;10.30;5.60;;;7.60;85.60;;;;;;5034120;28;20026;-71
2022/04/15 01:15:44;;;;;;;10.98;5.68;;;7.70;85.90;;;;;;5035397;28;20030;-72
2022/04/15 01:18:10;;;;;;;8.88;5.57;;;7.70;86.00;;;;;;5024985;28;20039;-72
2022/04/15 01:20:37;;;;;;;12.02;5.65;;;7.70;86.00;;;;;;5034209;28;20469;-72
2022/04/15 01:23:11;;;;;;;9.90;5.75;;;7.60;86.10;;;;;;5035064;28;20415;-72
2022/04/15 01:25:37;;;;;;;12.43;5.72;;;7.60;86.20;;;;;;5034526;28;20554;-72
2022/04/15 01:28:03;;;;;;;11.23;6.03;;;7.60;86.30;;;;;;5031581;28;20672;-72
2022/04/15 01:30:29;;;;;;;12.23;5.82;;;7.50;86.40;;;;;;5033531;28;20042;-72
2022/04/15 01:32:55;;;;;;;13.65;6.75;;;7.60;86.50;;;;;;5033821;28;20030;-72
2022/04/15 01:35:21;;;;;;;12.48;6.80;;;7.60;86.30;;;;;;5026626;28;20060;-73
2022/04/15 01:37:48;;;;;;;11.15;6.55;;;7.60;86.30;;;;;;5033518;28;20033;-72
2022/04/15 01:40:16;;;;;;;13.05;6.93;;;7.50;86.30;;;;;;5033838;28;20029;-72
2022/04/15 01:42:43;;;;;;;11.85;7.03;;;7.60;86.50;;;;;;5033236;28;20045;-74
2022/04/15 01:45:09;;;;;;;12.40;6.55;;;7.50;86.50;;;;;;5029742;28;20064;-72
2022/04/15 01:47:36;;;;;;;11.13;6.63;;;7.50;86.50;;;;;;5032873;28;20068;-72
2022/04/15 01:50:06;;;;;;;13.35;7.00;;;7.60;86.70;;;;;;5032573;28;20041;-72
2022/04/15 01:52:34;;;;;;;10.57;6.90;;;7.60;86.90;;;;;;5025710;28;20705;-72
2022/04/15 01:55:01;;;;;;;11.85;6.80;;;7.60;86.80;;;;;;5032998;28;20029;-72
2022/04/15 01:57:26;;;;;;;13.30;7.75;;;7.60;86.70;;;;;;5033588;28;20417;-72
2022/04/15 01:59:52;;;;;;;12.73;7.35;;;7.50;86.90;;;;;;5031768;28;20116;-72
2022/04/15 02:02:18;;;;;;;13.50;7.65;;;7.60;87.10;;;;;;5023858;28;20106;-72
2022/04/15 02:04:44;;;;;;;13.18;7.82;;;7.50;87.20;;;;;;5032699;28;20045;-72
2022/04/15 02:07:09;;;;;;;13.07;7.65;;;7.50;87.20;;;;;;5032183;28;20030;-72
2022/04/15 02:09:35;;;;;;;11.73;7.18;;;7.60;87.30;;;;;;5029478;28;20125;-72
2022/04/15 02:12:00;;;;;;;11.77;7.90;;;7.60;87.40;;;;;;5033276;28;20034;-72
2022/04/15 02:14:26;;;;;;;11.40;7.35;;;7.60;87.40;;;;;;5032381;28;20030;-72
2022/04/15 02:16:53;;;;;;;13.95;7.57;;;7.50;87.50;;;;;;5031750;28;20517;-73
2022/04/15 02:19:19;;;;;;;16.23;7.60;;;7.50;87.70;;;;;;5027575;28;20037;-72
2022/04/15 02:21:45;;;;;;;15.38;7.70;;;7.50;87.90;;;;;;5032870;28;20030;-72
2022/04/15 02:24:11;;;;;;;11.50;7.78;;;7.50;87.90;;;;;;5032855;28;20440;-72
2022/04/15 02:26:37;;;;;;;15.88;7.57;;;7.50;87.80;;;;;;5026943;28;20034;-72
2022/04/15 02:29:02;;;;;;;12.32;8.52;;;7.50;87.90;;;;;;5031541;28;20392;-72
2022/04/15 02:31:28;;;;;;;16.60;8.50;;;7.50;87.90;;;;;;5032621;28;20061;-72
2022/04/15 02:33:53;;;;;;;20.20;8.15;;;7.50;88.00;;;;;;5031301;28;20124;-72
2022/04/15 02:36:19;;;;;;;12.35;7.20;;;7.50;88.10;;;;;;5023997;28;20041;-72
2022/04/15 02:38:44;;;;;;;13.18;7.55;;;7.50;88.00;;;;;;5032355;28;20021;-72
2022/04/15 02:41:10;;;;;;;10.77;7.00;;;7.50;88.00;;;;;;5032645;28;20060;-72
2022/04/15 02:43:40;;;;;;;13.77;7.22;;;7.50;88.10;;;;;;5031075;28;20128;-72
2022/04/15 02:46:09;;;;;;;14.18;7.55;;;7.50;88.20;;;;;;5032194;28;20022;-73
2022/04/15 02:48:35;;;;;;;12.85;7.47;;;7.50;88.10;;;;;;5032552;28;20037;-72
2022/04/15 02:51:01;;;;;;;11.15;6.93;;;7.50;88.20;;;;;;5029298;28;20095;-73
2022/04/15 02:53:27;;;;;;;13.93;7.05;;;7.50;88.30;;;;;;5031593;28;20037;-72
2022/04/15 02:55:53;;;;;;;15.77;7.45;;;7.60;88.10;;;;;;5032114;28;20033;-73
2022/04/15 02:58:19;;;;;;;11.95;6.97;;;7.60;88.00;;;;;;5032239;28;20483;-73
2022/04/15 03:00:45;;;;;;;11.75;6.65;;;7.50;88.10;;;;;;5026304;28;20377;-72
2022/04/15 03:03:11;;;;;;;10.52;6.82;;;7.50;88.20;;;;;;5032246;28;20030;-72
2022/04/15 03:05:37;;;;;;;10.75;6.95;;;7.50;88.30;;;;;;5031060;28;20030;-72
2022/04/15 03:08:03;;;;;;;12.00;7.85;;;7.50;88.20;;;;;;5015567;28;20361;-72
2022/04/15 03:10:29;;;;;;;14.68;7.53;;;7.50;88.30;;;;;;5021313;28;20044;-72
2022/04/15 03:12:54;;;;;;;9.95;6.85;;;7.60;88.30;;;;;;5031687;28;20034;-72
2022/04/15 03:15:20;;;;;;;12.95;7.75;;;7.60;88.10;;;;;;5031307;28;20045;-72
2022/04/15 03:17:45;;;;;;;12.38;7.65;;;7.50;88.00;;;;;;5028871;28;20025;-71
2022/04/15 03:20:13;;;;;;;13.45;8.18;;;7.50;88.30;;;;;;5030663;28;20039;-71
2022/04/15 03:22:40;;;;;;;15.82;8.43;;;7.40;88.30;;;;;;5031588;28;20380;-71
2022/04/15 03:25:07;;;;;;;11.60;7.55;;;7.50;88.60;;;;;;5030107;28;20366;-71
2022/04/15 03:27:33;;;;;;;13.50;7.60;;;7.40;88.50;;;;;;5031754;28;20042;-71
2022/04/15 03:29:59;;;;;;;13.40;7.28;;;7.40;88.60;;;;;;5031395;28;20043;-71
2022/04/15 03:32:25;;;;;;;17.90;9.05;;;7.40;88.60;;;;;;5031065;28;20032;-71
2022/04/15 03:34:54;;;;;;;15.57;8.30;;;7.50;88.60;;;;;;5025467;28;20071;-71
2022/04/15 03:37:20;;;;;;;15.82;7.85;;;7.50;88.70;;;;;;5031645;28;20037;-71
2022/04/15 03:39:45;;;;;;;12.40;8.52;;;7.40;89.00;;;;;;5030867;28;20037;-71
2022/04/15 03:42:11;;;;;;;15.63;8.15;;;7.40;89.10;;;;;;5027910;28;20022;-71
2022/04/15 03:44:36;;;;;;;13.98;8.20;;;7.40;89.40;;;;;;5026756;28;20547;-72
2022/04/15 03:47:03;;;;;;;14.27;8.35;;;7.40;89.40;;;;;;5041109;28;20391;-72
2022/04/15 03:49:29;;;;;;;12.65;8.43;;;7.40;89.50;;;;;;5030271;28;20389;-72
2022/04/15 03:51:54;;;;;;;13.98;8.40;;;7.30;89.60;;;;;;5039043;28;20033;-72
2022/04/15 03:54:20;;;;;;;16.48;8.13;;;7.30;89.60;;;;;;5030751;28;20033;-71
2022/04/15 03:56:46;;;;;;;16.52;8.88;;;7.40;89.70;;;;;;5030543;28;20080;-71
2022/04/15 03:59:12;;;;;;;14.90;8.20;;;7.40;89.70;;;;;;5027251;28;20022;-72
2022/04/15 04:01:38;;;;;;;15.88;9.02;;;7.40;89.50;;;;;;5023176;28;20087;-73
2022/04/15 04:04:04;;;;;;;16.02;8.95;;;7.30;89.60;;;;;;5030576;28;20388;-71
2022/04/15 04:06:29;;;;;;;12.40;8.00;;;7.40;89.60;;;;;;5017363;28;20473;-72
2022/04/15 04:08:55;;;;;;;14.43;7.88;;;7.30;89.60;;;;;;5030377;28;20358;-72
2022/04/15 04:11:21;;;;;;;15.30;8.15;;;7.30;89.70;;;;;;5030751;28;20049;-71
2022/04/15 04:13:47;;;;;;;13.90;8.32;;;7.30;89.90;;;;;;5030624;28;20021;-72
2022/04/15 04:16:12;;;;;;;15.18;8.77;;;7.30;89.80;;;;;;5026364;28;20038;-72
2022/04/15 04:18:41;;;;;;;14.52;8.52;;;7.30;89.80;;;;;;5029554;28;20037;-67
2022/04/15 04:21:07;;;;;;;13.07;8.60;;;7.30;89.80;;;;;;5029429;28;20037;-68
2022/04/15 04:23:33;;;;;;;13.25;7.88;;;7.30;90.00;;;;;;5029154;28;20033;-71
2022/04/15 04:25:58;;;;;;;16.15;8.50;;;7.30;90.00;;;;;;5023182;28;20117;-68
2022/04/15 04:28:24;;;;;;;16.33;9.13;;;7.30;90.00;;;;;;5030684;28;20108;-67
2022/04/15 04:30:49;;;;;;;15.75;8.93;;;7.30;90.20;;;;;;5030363;28;20714;-68
2022/04/15 04:33:15;;;;;;;14.35;8.90;;;7.30;90.10;;;;;;5026332;28;20041;-68
2022/04/15 04:35:40;;;;;;;17.55;10.05;;;7.30;90.10;;;;;;5022000;28;20029;-68
2022/04/15 04:38:07;;;;;;;16.63;9.95;;;7.30;90.30;;;;;;5029605;28;20040;-68
2022/04/15 04:40:34;;;;;;;20.50;11.32;;;7.20;90.70;;;;;;5029256;28;20061;-71
2022/04/15 04:43:00;;;;;;;17.95;11.35;;;7.20;91.00;;;;;;5027891;28;20056;-68
2022/04/15 04:45:26;;;;;;;17.90;11.73;;;7.30;91.20;;;;;;5030140;28;20039;-68
2022/04/15 04:47:53;;;;;;;23.05;12.25;;;7.30;91.30;;;;;;5029955;28;20034;-70
2022/04/15 04:50:18;;;;;;;23.25;13.25;;;7.20;91.40;;;;;;5029405;28;20523;-68
2022/04/15 04:52:46;;;;;;;21.92;13.32;;;7.20;91.40;;;;;;5029802;28;20029;-68
2022/04/15 04:55:13;;;;;;;22.40;13.60;;;7.30;91.50;;;;;;5030265;28;20124;-68
2022/04/15 04:57:39;;;;;;;22.13;13.27;;;7.30;91.60;;;;;;5028533;28;20344;-67
2022/04/15 05:00:06;;;;;;;22.05;14.18;;;7.30;91.70;;;;;;5026875;28;20029;-68
2022/04/15 05:02:32;;;;;;;23.10;13.38;;;7.30;91.70;;;;;;5029301;28;20044;-69
2022/04/15 05:04:58;;;;;;;23.33;12.75;;;7.30;91.80;;;;;;5021377;28;20033;-68
2022/04/15 05:07:23;;;;;;;23.45;13.30;;;7.30;91.90;;;;;;5021003;28;20377;-68
2022/04/15 05:09:49;;;;;;;21.63;13.52;;;7.30;91.80;;;;;;5030310;28;20030;-70
2022/04/15 05:12:15;;;;;;;22.55;13.90;;;7.30;91.90;;;;;;5030223;28;20036;-68
2022/04/15 05:14:40;;;;;;;22.48;13.75;;;7.40;92.00;;;;;;5027529;28;20037;-68
2022/04/15 05:17:06;;;;;;;23.58;14.23;;;7.40;92.00;;;;;;5023743;28;20503;-68
2022/04/15 05:19:32;;;;;;;27.13;14.15;;;7.40;92.00;;;;;;5030358;28;20091;-70
2022/04/15 05:21:58;;;;;;;32.95;15.25;;;7.40;92.10;;;;;;5028549;28;20033;-68
2022/04/15 05:24:23;;;;;;;26.45;14.80;;;7.40;92.10;;;;;;5024943;28;20034;-68
2022/04/15 05:26:48;;;;;;;26.05;14.55;;;7.40;92.20;;;;;;5023078;28;20037;-68
2022/04/15 05:29:14;;;;;;;30.15;14.88;;;7.40;92.20;;;;;;5032065;28;20044;-68
2022/04/15 05:31:39;;;;;;;28.83;15.80;;;7.40;92.20;;;;;;5030021;28;20030;-68
2022/04/15 05:34:05;;;;;;;28.30;14.98;;;7.50;92.20;;;;;;5031828;28;20477;-68
2022/04/15 05:36:31;;;;;;;27.50;15.20;;;7.50;92.20;;;;;;5032851;28;20072;-68
2022/04/15 05:38:56;;;;;;;30.30;15.65;;;7.50;92.20;;;;;;5033461;28;20028;-68
2022/04/15 05:41:22;;;;;;;26.23;14.88;;;7.60;92.20;;;;;;5029008;28;20037;-69
2022/04/15 05:43:48;;;;;;;30.13;16.17;;;7.50;92.10;;;;;;5033675;28;20068;-69
2022/04/15 05:46:14;;;;;;;27.30;16.13;;;7.60;92.30;;;;;;5033446;28;20065;-70
2022/04/15 05:48:39;;;;;;;31.33;16.50;;;7.60;92.10;;;;;;5031091;28;20057;-68
2022/04/15 05:51:05;;;;;;;30.38;16.92;;;7.60;92.00;;;;;;5030961;28;20039;-69
2022/04/15 05:53:31;;;;;;;32.65;15.75;;;7.60;92.20;;;;;;5033360;28;20037;-68
2022/04/15 05:55:57;;;;;;;30.15;16.75;;;7.60;92.10;;;;;;5022053;28;20026;-68
2022/04/15 05:58:25;;;;;;;29.90;16.20;;;7.70;92.30;;;;;;5027709;28;20034;-68
2022/04/15 06:00:50;;;;;;;28.65;15.82;;;7.60;92.10;;;;;;5027317;28;20029;-68
2022/04/15 06:03:16;;;;;;;27.95;15.00;;;7.60;92.20;;;;;;5029179;28;20553;-68
2022/04/15 06:05:41;;;;;;;27.30;15.52;;;7.60;92.30;;;;;;5019571;28;20087;-69
2022/04/15 06:08:07;;;;;;;30.85;17.15;;;7.70;92.40;;;;;;5027689;28;20112;-69
2022/04/15 06:10:32;;;;;;;31.58;17.08;;;7.70;92.30;;;;;;5032947;28;20045;-71
2022/04/15 06:13:03;;;;;;;31.52;17.30;;;7.70;92.20;;;;;;5035167;28;20039;-68
2022/04/15 06:15:31;;;;;;;34.85;16.92;;;7.80;92.30;;;;;;5037905;28;20116;-68
2022/04/15 06:17:57;;;;;;;31.23;16.88;;;7.70;92.20;;;;;;5028499;28;20041;-68
2022/04/15 06:20:23;;;;;;;29.38;16.08;;;7.80;92.30;;;;;;5031322;28;20033;-68
2022/04/15 06:22:49;;;;;;;32.53;17.20;;;7.80;92.20;;;;;;5027776;28;20465;-68
2022/04/15 06:25:15;;;;;;;30.45;16.58;;;7.80;92.30;;;;;;5030414;28;20044;-68
2022/04/15 06:27:41;;;;;;;32.17;18.13;;;7.80;92.20;;;;;;5033045;28;20079;-68
2022/04/15 06:30:08;;;;;;;32.50;16.67;;;7.80;92.30;;;;;;5032611;28;20036;-68
2022/04/15 06:32:34;;;;;;;30.73;16.98;;;7.80;92.40;;;;;;5027525;28;20117;-69
2022/04/15 06:34:59;;;;;;;27.55;16.92;;;7.80;92.20;;;;;;5028610;28;20040;-68
2022/04/15 06:37:25;;;;;;;29.00;16.23;;;7.80;92.20;;;;;;5032201;28;20041;-68
2022/04/15 06:39:51;;;;;;;30.77;15.63;;;7.80;92.10;;;;;;5027263;28;20030;-68
2022/04/15 06:42:27;;;;;;;23.85;13.40;;;7.90;92.20;;;;;;5020666;28;20025;-68
2022/04/15 06:44:53;;;;;;;22.75;12.02;;;7.80;92.00;;;;;;5032063;28;20083;-68
2022/04/15 06:47:19;;;;;;;20.40;12.02;;;7.90;92.00;;;;;;5031611;28;20115;-68
2022/04/15 06:49:46;;;;;;;24.40;11.75;;;7.80;91.60;;;;;;5028176;28;20048;-68
2022/04/15 06:52:13;;;;;;;22.77;11.25;;;7.80;91.50;;;;;;5031352;28;20380;-69
2022/04/15 06:54:38;;;;;;;23.45;11.77;;;7.80;91.60;;;;;;5032795;28;20041;-68
2022/04/15 06:57:04;;;;;;;23.00;12.30;;;7.70;91.70;;;;;;5026015;28;20042;-68
2022/04/15 06:59:30;;;;;;;23.27;12.00;;;7.70;91.70;;;;;;5031884;28;20108;-68
2022/04/15 07:01:56;;;;;;;19.83;11.15;;;7.60;91.70;;;;;;5031580;28;20080;-68
2022/04/15 07:04:23;;;;;;;21.83;11.02;;;7.50;92.20;;;;;;5031893;28;20045;-69
2022/04/15 07:06:48;;;;;;;18.67;10.65;;;7.50;92.20;;;;;;5022837;28;20061;-68
2022/04/15 07:09:14;;;;;;;18.98;11.60;;;7.50;92.20;;;;;;5032278;28;20049;-68
2022/04/15 07:11:39;;;;;;;20.55;11.32;;;7.60;92.20;;;;;;5031413;28;20091;-68
2022/04/15 07:14:05;;;;;;;20.27;11.80;;;7.50;92.20;;;;;;5028402;28;20072;-70
2022/04/15 07:16:34;;;;;;;19.08;10.32;;;7.60;92.20;;;;;;5029936;28;20029;-68
2022/04/15 07:19:04;;;;;;;20.45;12.73;;;7.50;91.90;;;;;;5031660;28;20022;-68
2022/04/15 07:21:39;;;;;;;20.25;11.18;;;7.60;92.10;;;;;;5030802;28;20036;-68
2022/04/15 07:24:06;;;;;;;21.85;11.02;;;7.60;92.10;;;;;;5027686;28;20121;-68
2022/04/15 07:26:33;;;;;;;20.85;11.30;;;7.50;92.20;;;;;;5031847;28;20033;-68
2022/04/15 07:28:59;;;;;;;21.83;10.98;;;7.40;92.10;;;;;;5031585;28;20116;-68
2022/04/15 07:31:25;;;;;;;20.88;12.40;;;7.30;92.30;;;;;;5022854;28;20442;-69
2022/04/15 07:33:51;;;;;;;21.63;10.98;;;7.30;92.50;;;;;;5031667;28;20505;-68
2022/04/15 07:39:04;;;;;;;24.42;12.52;;;7.30;92.30;;;;;;5031507;28;20026;-68
2022/04/15 07:41:30;;;;;;;21.30;12.45;;;7.30;92.50;;;;;;5022604;28;20036;-68
2022/04/15 07:43:55;;;;;;;22.45;12.55;;;7.30;92.40;;;;;;5031241;28;20370;-71
2022/04/15 07:46:21;;;;;;;22.83;11.70;;;7.20;92.60;;;;;;5030840;28;20041;-68
2022/04/15 07:48:46;;;;;;;20.75;12.50;;;7.30;92.70;;;;;;5021429;28;20374;-68
2022/04/15 07:51:12;;;;;;;23.80;13.65;;;7.10;92.60;;;;;;5030680;28;20033;-68
2022/04/15 07:53:37;;;;;;;25.65;13.23;;;7.20;92.80;;;;;;5031120;28;20044;-68
2022/04/15 07:56:05;;;;;;;25.45;13.73;;;7.30;92.90;;;;;;5030799;28;20045;-68
2022/04/15 07:58:31;;;;;;;28.80;13.20;;;7.30;92.90;;;;;;5018020;28;20033;-68
2022/04/15 08:00:59;;;;;;;29.65;14.27;;;7.40;92.80;;;;;;5030848;28;20022;-68
2022/04/15 08:03:26;;;;;;;30.05;14.00;;;7.30;92.80;;;;;;5031205;28;20037;-68
2022/04/15 08:05:51;;;;;;;27.30;14.43;;;7.40;92.80;;;;;;5026228;28;20034;-68
2022/04/15 08:08:17;;;;;;;28.55;14.45;;;7.30;92.60;;;;;;5031283;28;20048;-68
2022/04/15 08:10:42;;;;;;;26.50;14.05;;;7.40;92.90;;;;;;5030383;28;20049;-68
2022/04/15 08:13:08;;;;;;;24.15;14.27;;;7.40;92.80;;;;;;5031224;28;20175;-68
2022/04/15 08:15:34;;;;;;;23.73;14.07;;;7.50;92.90;;;;;;5022574;28;20466;-68
2022/04/15 08:18:00;;;;;;;30.48;14.95;;;7.50;92.60;;;;;;5029083;28;20052;-68
2022/04/15 08:20:26;;;;;;;22.48;13.90;;;7.60;92.60;;;;;;5029962;28;20037;-68
2022/04/15 08:22:51;;;;;;;31.38;15.32;;;7.50;92.40;;;;;;5024282;28;20041;-68
2022/04/15 08:25:17;;;;;;;26.33;14.45;;;7.60;92.60;;;;;;5030673;28;20087;-68
2022/04/15 08:27:42;;;;;;;26.52;15.15;;;7.70;92.50;;;;;;5030944;28;20107;-68
2022/04/15 08:30:08;;;;;;;23.42;14.18;;;7.70;92.10;;;;;;5030959;28;20432;-68
2022/04/15 08:32:34;;;;;;;26.77;14.98;;;7.70;92.10;;;;;;5019301;28;20061;-68
2022/04/15 08:35:03;;;;;;;23.45;15.18;;;7.80;91.70;;;;;;5030614;28;20030;-69
2022/04/15 08:37:29;;;;;;;26.90;15.02;;;8.00;91.60;;;;;;5030471;28;20030;-68
2022/04/15 08:39:54;;;;;;;24.58;14.30;;;8.00;91.30;;;;;;5013994;28;20040;-68
2022/04/15 08:42:21;;;;;;;25.67;14.82;;;8.10;90.80;;;;;;5029677;28;20025;-68
2022/04/15 08:44:49;;;;;;;24.70;14.50;;;8.10;90.50;;;;;;5030516;28;20554;-68
2022/04/15 08:47:15;;;;;;;19.52;13.57;;;8.10;90.10;;;;;;5026116;28;20141;-68
2022/04/15 08:49:40;;;;;;;19.52;13.05;;;8.20;89.90;;;;;;5025109;28;20068;-68
2022/04/15 08:52:09;;;;;;;20.33;11.27;;;8.20;89.60;;;;;;5030402;28;20473;-69
2022/04/15 08:54:35;;;;;;;20.92;13.85;;;8.10;89.40;;;;;;5030174;28;20033;-68
2022/04/15 08:57:01;;;;;;;21.00;13.68;;;8.10;89.50;;;;;;5026077;28;20026;-68
2022/04/15 08:59:26;;;;;;;28.60;14.98;;;8.10;89.70;;;;;;5030442;28;20065;-68
2022/04/15 09:01:52;;;;;;;24.23;14.55;;;8.10;89.70;;;;;;5029099;28;20026;-69
2022/04/15 09:04:20;;;;;;;21.42;14.00;;;8.20;89.50;;;;;;5032209;28;20048;-68
2022/04/15 09:06:54;;;;;;;19.70;12.88;;;8.10;89.60;;;;;;5025491;28;20108;-68
2022/04/15 09:09:19;;;;;;;22.98;13.55;;;8.10;89.20;;;;;;5034597;28;20099;-68
2022/04/15 09:11:48;;;;;;;21.42;14.20;;;8.20;89.40;;;;;;5034730;28;20030;-68
2022/04/15 09:14:14;;;;;;;22.08;14.45;;;8.30;89.30;;;;;;5024068;28;20108;-68
2022/04/15 09:16:42;;;;;;;22.63;15.23;;;8.30;89.30;;;;;;5033934;28;20457;-68
2022/04/15 09:19:09;;;;;;;26.35;14.57;;;8.30;89.30;;;;;;5033342;28;20021;-68
2022/04/15 09:21:36;;;;;;;22.23;14.40;;;8.30;89.30;;;;;;5027388;28;20071;-69
2022/04/15 09:24:02;;;;;;;24.25;14.75;;;8.30;89.20;;;;;;5032399;28;20040;-70
2022/04/15 09:26:27;;;;;;;22.60;14.63;;;8.50;88.90;;;;;;5032811;28;20033;-68
2022/04/15 09:28:54;;;;;;;22.63;14.68;;;8.70;88.80;;;;;;5033874;28;20037;-68
2022/04/15 09:31:21;;;;;;;22.85;14.13;;;8.70;88.40;;;;;;5021486;28;20071;-68
2022/04/15 09:33:54;;;;;;;22.73;14.52;;;8.70;88.50;;;;;;5031234;28;20033;-68
2022/04/15 09:36:32;;;;;;;20.08;14.07;;;8.70;88.30;;;;;;5032236;28;20085;-68
2022/04/15 09:39:02;;;;;;;19.02;13.27;;;8.80;88.00;;;;;;5021828;28;20033;-68
2022/04/15 09:41:29;;;;;;;19.70;12.93;;;8.80;87.40;;;;;;5023595;28;20032;-68
2022/04/15 09:43:57;;;;;;;21.92;13.77;;;8.70;87.30;;;;;;5033542;28;20054;-69
2022/04/15 09:46:23;;;;;;;19.52;13.60;;;8.70;87.80;;;;;;5022936;28;20026;-70
2022/04/15 09:49:07;;;;;;;21.95;13.82;;;8.60;88.00;;;;;;5028286;28;20041;-69
2022/04/15 09:51:39;;;;;;;22.05;13.68;;;8.60;87.90;;;;;;5033432;28;20037;-69
2022/04/15 09:54:07;;;;;;;22.55;14.10;;;8.60;88.30;;;;;;5033443;28;20036;-68
2022/04/15 09:56:39;;;;;;;22.75;15.40;;;8.60;88.70;;;;;;5023854;28;20080;-68
2022/04/15 09:59:08;;;;;;;21.30;14.55;;;8.80;88.70;;;;;;5032947;28;20128;-68
2022/04/15 10:01:37;;;;;;;24.02;15.23;;;9.00;88.20;;;;;;5033640;28;20496;-68
2022/04/15 10:04:05;;;;;;;25.33;15.05;;;9.10;87.50;;;;;;5029571;28;20389;-68
2022/04/15 10:06:31;;;;;;;23.05;15.35;;;9.00;87.00;;;;;;5033147;28;20116;-68
2022/04/15 10:08:59;;;;;;;26.70;16.83;;;9.10;87.20;;;;;;5033109;28;20124;-68
2022/04/15 10:11:24;;;;;;;23.85;15.93;;;9.10;87.20;;;;;;5032491;28;20021;-69
2022/04/15 10:13:51;;;;;;;30.92;16.83;;;9.10;87.10;;;;;;5024734;28;20041;-70
2022/04/15 10:16:17;;;;;;;28.48;16.27;;;9.10;87.30;;;;;;5033124;28;20389;-71
2022/04/15 10:18:45;;;;;;;25.33;16.65;;;9.00;87.40;;;;;;5032802;28;20039;-68
2022/04/15 10:21:11;;;;;;;25.50;15.50;;;9.00;87.40;;;;;;5031392;28;20091;-70
2022/04/15 10:23:37;;;;;;;24.00;16.33;;;9.10;87.40;;;;;;5032955;28;20511;-68
2022/04/15 10:26:03;;;;;;;23.88;16.35;;;9.30;87.40;;;;;;5032548;28;20064;-68
2022/04/15 10:28:38;;;;;;;23.50;16.20;;;9.40;87.20;;;;;;5032683;28;20045;-68
2022/04/15 10:31:11;;;;;;;23.48;15.70;;;9.30;86.90;;;;;;5029725;28;20034;-68
2022/04/15 10:33:39;;;;;;;24.27;15.75;;;9.20;86.50;;;;;;5032656;28;20057;-70
2022/04/15 10:36:21;;;;;;;25.02;15.55;;;9.20;86.30;;;;;;5032262;28;20036;-68
2022/04/15 10:39:02;;;;;;;25.80;17.90;;;9.20;86.70;;;;;;5023749;28;20702;-68
2022/04/15 10:41:40;;;;;;;24.23;16.55;;;9.20;86.90;;;;;;5032925;28;20029;-68
2022/04/15 10:44:06;;;;;;;24.55;17.15;;;9.20;86.80;;;;;;5032644;28;20068;-69
2022/04/15 10:46:36;;;;;;;22.08;17.02;;;9.10;86.70;;;;;;5032577;28;20026;-69
2022/04/15 10:49:18;;;;;;;23.70;16.65;;;9.10;86.70;;;;;;5030171;28;20040;-69
2022/04/15 10:51:44;;;;;;;24.13;17.50;;;9.10;87.10;;;;;;5032378;28;20386;-69
2022/04/15 10:54:45;;;;;;;23.75;17.15;;;9.10;87.20;;;;;;5032372;28;20396;-68
2022/04/15 10:57:21;;;;;;;;;;;9.10;87.30;;;;;;5026458;28;20021;-69
2022/04/15 11:02:49;;;;;;;23.17;16.58;;;9.30;87.20;;;;;;5032079;28;20032;-69
2022/04/15 11:05:30;;;;;;;22.17;15.73;;;9.30;86.90;;;;;;5019770;28;20381;-69
2022/04/15 11:08:05;;;;;;;26.30;17.17;;;9.30;86.80;;;;;;5019996;28;20037;-69
2022/04/15 11:11:07;;;;;;;26.70;17.25;;;9.40;86.90;;;;;;5032581;28;20038;-68
2022/04/15 11:13:43;;;;;;;22.80;14.35;;;9.60;86.70;;;;;;5028500;28;20075;-72
2022/04/15 11:16:14;;;;;;;23.77;16.48;;;9.50;86.10;;;;;;5031394;28;20060;-68
2022/04/15 11:18:52;;;;;;;25.93;14.57;;;9.60;86.30;;;;;;5032343;28;20362;-68
2022/04/15 11:21:39;;;;;;;24.55;14.95;;;9.60;86.20;;;;;;5025988;28;20398;-69
2022/04/15 11:24:07;;;;;;;20.65;13.82;;;9.60;86.20;;;;;;5027684;28;20021;-69
2022/04/15 11:26:35;;;;;;;22.15;13.13;;;9.60;85.80;;;;;;5031019;28;20064;-70
2022/04/15 11:29:02;;;;;;;22.27;14.32;;;9.60;85.80;;;;;;5028763;28;20377;-69
2022/04/15 11:31:33;;;;;;;23.08;14.23;;;9.80;86.10;;;;;;5031448;28;20496;-70
2022/04/15 11:34:15;;;;;;;21.15;13.98;;;9.80;85.60;;;;;;5031460;28;20108;-69
2022/04/15 11:36:43;;;;;;;22.30;14.48;;;9.70;85.50;;;;;;5017441;28;20017;-70
2022/04/15 11:39:11;;;;;;;20.15;13.25;;;9.80;85.40;;;;;;5031706;28;20518;-69
2022/04/15 11:41:46;;;;;;;20.80;13.75;;;9.90;85.60;;;;;;5031864;28;20236;-68
2022/04/15 11:44:13;;;;;;;23.75;14.30;;;9.90;85.30;;;;;;5031476;28;20506;-69
2022/04/15 11:46:40;;;;;;;22.88;14.55;;;9.80;85.20;;;;;;5020809;28;20068;-70
2022/04/15 11:49:17;;;;;;;20.08;14.65;;;9.80;85.20;;;;;;5031136;28;20504;-69
2022/04/15 11:51:44;;;;;;;22.70;13.80;;;10.10;85.20;;;;;;5029831;28;20500;-69
2022/04/15 11:54:09;;;;;;;27.25;17.83;;;9.90;84.80;;;;;;5031400;28;20030;-69
2022/04/15 11:56:35;;;;;;;28.27;18.45;;;10.00;85.00;;;;;;5021243;28;20508;-70
2022/04/15 11:59:01;;;;;;;46.67;28.27;;;9.90;84.80;;;;;;5030957;28;20037;-71
2022/04/15 12:01:29;;;;;;;40.50;24.35;;;10.00;85.00;;;;;;5031521;28;20471;-68
2022/04/15 12:03:55;;;;;;;76.95;41.58;;;9.80;85.00;;;;;;5030129;28;20118;-69
2022/04/15 12:06:22;;;;;;;81.03;40.70;;;9.90;85.00;;;;;;5030776;28;20599;-69
2022/04/15 12:08:48;;;;;;;75.72;46.88;;;9.80;84.90;;;;;;5031198;28;20070;-68
2022/04/15 12:11:13;;;;;;;25.95;18.42;;;9.80;85.30;;;;;;5031134;28;20030;-69
2022/04/15 12:13:39;;;;;;;23.70;15.60;;;9.80;85.40;;;;;;5025837;28;20032;-69
2022/04/15 12:16:05;;;;;;;21.00;14.10;;;9.90;85.50;;;;;;5030598;28;20064;-69
2022/04/15 12:18:31;;;;;;;22.08;14.00;;;10.10;85.50;;;;;;5030677;28;20037;-69
2022/04/15 12:20:58;;;;;;;19.42;13.82;;;9.90;85.00;;;;;;5024735;28;20048;-68
2022/04/15 12:23:26;;;;;;;20.50;13.50;;;10.00;85.00;;;;;;5030090;28;20473;-69
2022/04/15 12:26:06;;;;;;;19.83;12.65;;;10.00;85.10;;;;;;5033284;28;20029;-68
2022/04/15 12:31:31;;;;;;;22.65;13.23;;;10.20;84.90;;;;;;5025812;28;20100;-68
2022/04/15 12:33:58;;;;;;;19.95;12.48;;;10.10;84.10;;;;;;5028933;28;20079;-69
2022/04/15 12:36:23;;;;;;;21.83;13.10;;;10.10;84.30;;;;;;5020036;28;20018;-68
2022/04/15 12:39:00;;;;;;;22.65;13.93;;;10.30;84.70;;;;;;5033474;28;20018;-68
2022/04/15 12:41:41;;;;;;;21.80;13.45;;;10.30;84.40;;;;;;5040177;28;20105;-70
2022/04/15 12:44:15;;;;;;;20.30;13.50;;;10.30;84.40;;;;;;5035248;28;20061;-68
2022/04/15 12:46:45;;;;;;;23.10;13.77;;;10.30;84.10;;;;;;5027564;28;20034;-68
2022/04/15 12:49:23;;;;;;;21.38;13.80;;;10.10;84.20;;;;;;5031843;28;20186;-68
2022/04/15 12:51:49;;;;;;;19.42;13.40;;;10.20;84.40;;;;;;5040959;28;20029;-69